createdAt,value
2022-12-18T00:01:37.626Z,88.07
2022-12-18T00:04:40.299Z,87.55
2022-12-18T00:07:43.355Z,88.09
2022-12-18T00:10:45.365Z,88.47
2022-12-18T00:13:47.587Z,88.45
2022-12-18T00:16:49.211Z,87.84
2022-12-18T00:19:50.882Z,87.82
2022-12-18T00:22:54.012Z,88.25
2022-12-18T00:25:55.544Z,87.90
2022-12-18T00:29:01.539Z,87.49
2022-12-18T00:32:05.716Z,87.73
2022-12-18T00:35:08.172Z,88.10
2022-12-18T00:38:11.117Z,87.57
2022-12-18T00:41:13.864Z,87.75
2022-12-18T00:44:17.163Z,86.88
2022-12-18T00:47:18.952Z,87.14
2022-12-18T00:50:21.078Z,86.49
2022-12-18T00:53:24.182Z,86.36
2022-12-18T00:56:25.934Z,85.85
2022-12-18T00:59:28.238Z,85.89
2022-12-18T01:02:29.963Z,86.28
2022-12-18T01:05:31.783Z,86.02
2022-12-18T01:08:35.239Z,85.91
2022-12-18T01:11:36.811Z,85.38
2022-12-18T01:14:39.441Z,85.92
2022-12-18T01:17:41.013Z,85.49
2022-12-18T01:20:42.698Z,85.31
2022-12-18T01:23:45.774Z,85.65
2022-12-18T01:26:47.372Z,85.94
2022-12-18T01:29:50.575Z,86.09
2022-12-18T01:32:54.713Z,85.70
2022-12-18T01:35:56.350Z,86.02
2022-12-18T01:38:59.982Z,86.10
2022-12-18T01:42:05.077Z,86.28
2022-12-18T01:45:23.133Z,86.20
2022-12-18T01:48:24.697Z,85.99
2022-12-18T01:51:26.777Z,86.27
2022-12-18T01:54:29.815Z,86.17
2022-12-18T01:57:31.674Z,86.50
2022-12-18T02:00:33.800Z,87.08
2022-12-18T02:03:35.917Z,87.34
2022-12-18T02:06:40.837Z,87.27
2022-12-18T02:09:47.417Z,87.98
2022-12-18T02:12:50.856Z,87.29
2022-12-18T02:15:59.706Z,87.36
2022-12-18T02:19:04.417Z,87.66
2022-12-18T02:22:13.800Z,87.58
2022-12-18T02:25:24.370Z,88.08
2022-12-18T02:28:31.577Z,87.96
2022-12-18T02:31:37.855Z,88.05
2022-12-18T02:34:40.759Z,87.83
2022-12-18T02:37:48.087Z,87.97
2022-12-18T02:40:51.032Z,88.14
2022-12-18T02:43:56.931Z,88.04
2022-12-18T02:46:59.134Z,88.85
2022-12-18T02:50:05.299Z,88.36
2022-12-18T02:53:15.956Z,88.08
2022-12-18T02:56:20.493Z,88.41
2022-12-18T02:59:30.532Z,88.44
2022-12-18T03:02:38.404Z,88.67
2022-12-18T03:05:45.346Z,88.74
2022-12-18T03:08:49.491Z,88.79
2022-12-18T03:12:16.798Z,88.86
2022-12-18T03:15:22.727Z,88.61
2022-12-18T03:18:31.399Z,88.99
2022-12-18T03:21:35.101Z,88.93
2022-12-18T03:24:40.029Z,89.17
2022-12-18T03:27:45.704Z,89.26
2022-12-18T03:30:53.687Z,89.00
2022-12-18T03:33:58.783Z,88.94
2022-12-18T03:37:07.967Z,89.49
2022-12-18T03:40:11.281Z,89.36
2022-12-18T03:43:19.383Z,89.30
2022-12-18T03:46:27.331Z,89.62
2022-12-18T03:49:33.098Z,89.47
2022-12-18T03:52:38.070Z,89.17
2022-12-18T03:55:41.248Z,89.17
2022-12-18T03:58:44.183Z,89.16
2022-12-18T04:01:55.960Z,89.34
2022-12-18T04:05:00.998Z,89.48
2022-12-18T04:08:03.483Z,89.11
2022-12-18T04:11:07.896Z,89.60
2022-12-18T04:14:14.404Z,89.59
2022-12-18T04:17:20.962Z,89.33
2022-12-18T04:20:23.144Z,89.07
2022-12-18T04:23:24.918Z,89.20
2022-12-18T04:26:27.636Z,89.22
2022-12-18T04:29:55.398Z,89.48
2022-12-18T04:32:58.721Z,89.26
2022-12-18T04:36:00.362Z,89.51
2022-12-18T04:39:02.863Z,89.46
2022-12-18T04:42:05.854Z,89.38
2022-12-18T04:45:08.223Z,89.46
2022-12-18T04:48:11.284Z,89.67
2022-12-18T04:51:13.553Z,89.40
2022-12-18T04:54:15.298Z,89.62
2022-12-18T04:57:20.153Z,89.46
2022-12-18T05:00:22.287Z,89.82
2022-12-18T05:03:25.225Z,89.67
2022-12-18T05:06:26.881Z,89.88
2022-12-18T05:09:28.431Z,89.85
2022-12-18T05:12:30.195Z,90.03
2022-12-18T05:15:32.693Z,89.63
2022-12-18T05:18:35.916Z,89.72
2022-12-18T05:21:37.540Z,90.21
2022-12-18T05:24:39.335Z,90.08
2022-12-18T05:27:40.882Z,90.15
2022-12-18T05:30:42.459Z,90.29
2022-12-18T05:33:45.749Z,90.36
2022-12-18T05:36:47.444Z,90.23
2022-12-18T05:39:49.112Z,90.10
2022-12-18T05:42:50.830Z,90.08
2022-12-18T05:45:52.900Z,90.08
2022-12-18T05:48:55.861Z,90.37
2022-12-18T05:51:57.538Z,90.20
2022-12-18T05:55:00.147Z,90.09
2022-12-18T05:58:01.794Z,90.20
2022-12-18T06:01:08.124Z,90.48
2022-12-18T06:04:11.122Z,90.62
2022-12-18T06:07:12.961Z,90.54
2022-12-18T06:10:14.450Z,90.84
2022-12-18T06:13:16.234Z,90.73
2022-12-18T06:16:17.986Z,90.63
2022-12-18T06:19:21.158Z,90.99
2022-12-18T06:22:22.895Z,90.73
2022-12-18T06:25:24.552Z,90.61
2022-12-18T06:28:26.305Z,90.81
2022-12-18T06:31:27.941Z,90.98
2022-12-18T06:34:35.076Z,90.78
2022-12-18T06:37:36.713Z,90.67
2022-12-18T06:40:41.759Z,90.89
2022-12-18T06:43:43.722Z,91.02
2022-12-18T06:46:45.419Z,91.04
2022-12-18T06:49:50.326Z,91.00
2022-12-18T06:52:51.988Z,90.94
2022-12-18T06:55:53.687Z,90.67
2022-12-18T06:58:55.989Z,90.82
2022-12-18T07:01:57.607Z,90.67
2022-12-18T07:05:04.737Z,91.01
2022-12-18T07:08:09.159Z,91.32
2022-12-18T07:11:12.088Z,90.92
2022-12-18T07:14:13.598Z,90.52
2022-12-18T07:17:15.662Z,90.84
2022-12-18T07:20:18.751Z,90.57
2022-12-18T07:23:20.421Z,90.81
2022-12-18T07:26:22.620Z,90.82
2022-12-18T07:29:24.166Z,90.72
2022-12-18T07:32:25.730Z,90.63
2022-12-18T07:35:28.684Z,90.70
2022-12-18T07:38:30.391Z,90.64
2022-12-18T07:41:33.332Z,90.63
2022-12-18T07:44:43.484Z,90.70
2022-12-18T07:47:45.064Z,90.98
2022-12-18T07:50:48.379Z,90.49
2022-12-18T07:53:52.538Z,90.69
2022-12-18T07:56:54.393Z,90.26
2022-12-18T07:59:56.027Z,90.00
2022-12-18T08:02:57.858Z,90.28
2022-12-18T08:06:01.497Z,90.14
2022-12-18T08:09:03.835Z,89.66
2022-12-18T08:12:05.918Z,89.92
2022-12-18T08:15:08.076Z,89.71
2022-12-18T08:18:14.020Z,89.37
2022-12-18T08:21:20.600Z,89.63
2022-12-18T08:24:23.191Z,89.17
2022-12-18T08:27:29.624Z,89.48
2022-12-18T08:30:31.738Z,88.96
2022-12-18T08:33:34.281Z,88.96
2022-12-18T08:36:37.532Z,89.01
2022-12-18T08:39:39.091Z,88.64
2022-12-18T08:42:59.837Z,88.70
2022-12-18T08:46:01.579Z,88.41
2022-12-18T08:49:03.605Z,88.03
2022-12-18T08:52:07.224Z,88.09
2022-12-18T08:55:09.601Z,87.64
2022-12-18T08:58:11.221Z,87.78
2022-12-18T09:01:13.511Z,87.30
2022-12-18T09:04:15.323Z,87.37
2022-12-18T09:07:18.554Z,87.49
2022-12-18T09:10:20.412Z,87.01
2022-12-18T09:13:22.690Z,87.08
2022-12-18T09:16:28.821Z,87.17
2022-12-18T09:19:33.466Z,86.86
2022-12-18T09:22:36.359Z,87.01
2022-12-18T09:25:38.627Z,87.06
2022-12-18T09:28:40.701Z,86.53
2022-12-18T09:31:42.564Z,86.65
2022-12-18T09:34:44.242Z,86.45
2022-12-18T09:37:47.345Z,86.16
2022-12-18T09:40:49.707Z,86.25
2022-12-18T09:43:53.868Z,86.20
2022-12-18T09:47:03.658Z,85.81
2022-12-18T09:50:17.451Z,86.00
2022-12-18T09:53:23.562Z,86.06
2022-12-18T09:56:26.895Z,85.69
2022-12-18T10:02:34.670Z,85.31
2022-12-18T10:05:39.193Z,84.74
2022-12-18T10:08:46.752Z,84.17
2022-12-18T10:11:53.689Z,84.27
2022-12-18T10:14:58.094Z,84.11
2022-12-18T10:18:03.847Z,83.51
2022-12-18T10:21:10.016Z,83.12
2022-12-18T10:24:18.947Z,82.76
2022-12-18T10:27:23.012Z,82.81
2022-12-18T10:30:25.858Z,82.38
2022-12-18T10:33:30.014Z,82.42
2022-12-18T10:36:31.650Z,82.34
2022-12-18T10:39:34.604Z,82.14
2022-12-18T10:42:36.302Z,81.39
2022-12-18T10:45:39.404Z,81.46
2022-12-18T10:48:43.189Z,81.33
2022-12-18T10:51:45.477Z,81.55
2022-12-18T10:54:51.823Z,81.58
2022-12-18T10:57:53.408Z,81.11
2022-12-18T11:01:09.302Z,81.17
2022-12-18T11:04:14.915Z,81.17
2022-12-18T11:07:16.486Z,80.73
2022-12-18T11:10:22.576Z,80.68
2022-12-18T11:13:25.279Z,80.81
2022-12-18T11:16:27.252Z,79.73
2022-12-18T11:19:34.594Z,80.29
2022-12-18T11:22:37.398Z,80.06
2022-12-18T11:25:51.469Z,79.70
2022-12-18T11:28:53.891Z,79.51
2022-12-18T11:32:13.886Z,80.22
2022-12-18T11:35:18.054Z,80.04
2022-12-18T11:38:24.256Z,79.52
2022-12-18T11:41:49.738Z,79.23
2022-12-18T11:44:52.528Z,79.99
2022-12-18T11:47:57.659Z,79.36
2022-12-18T11:51:00.339Z,79.12
2022-12-18T11:54:03.023Z,79.34
2022-12-18T11:57:10.967Z,79.21
2022-12-18T12:00:14.105Z,79.76
2022-12-18T12:03:23.402Z,79.06
2022-12-18T12:06:27.600Z,79.09
2022-12-18T12:09:32.748Z,78.62
2022-12-18T12:12:50.255Z,78.49
2022-12-18T12:15:58.936Z,77.97
2022-12-18T12:19:12.957Z,77.99
2022-12-18T12:22:20.499Z,78.18
2022-12-18T12:25:29.853Z,77.82
2022-12-18T12:28:54.721Z,78.06
2022-12-18T12:32:05.227Z,78.15
2022-12-18T12:35:15.669Z,78.10
2022-12-18T12:38:20.220Z,78.35
2022-12-18T12:41:42.531Z,77.91
2022-12-18T12:44:55.676Z,78.07
2022-12-18T12:48:03.440Z,78.41
2022-12-18T12:51:10.564Z,78.29
2022-12-18T12:54:15.273Z,77.67
2022-12-18T12:57:23.713Z,77.31
2022-12-18T13:00:29.153Z,77.78
2022-12-18T13:03:37.251Z,77.69
2022-12-18T13:06:44.820Z,77.78
2022-12-18T13:10:02.666Z,77.34
2022-12-18T13:13:05.541Z,76.74
2022-12-18T13:16:19.225Z,76.99
2022-12-18T13:19:23.454Z,77.08
2022-12-18T13:22:26.472Z,77.72
2022-12-18T13:25:29.692Z,76.64
2022-12-18T13:28:51.656Z,77.06
2022-12-18T13:32:01.786Z,76.60
2022-12-18T13:35:22.675Z,77.01
2022-12-18T13:38:25.195Z,76.99
2022-12-18T13:41:29.212Z,76.90
2022-12-18T13:44:38.528Z,76.80
2022-12-18T13:47:46.324Z,76.02
2022-12-18T13:50:56.612Z,76.50
2022-12-18T13:54:00.220Z,76.33
2022-12-18T13:57:03.114Z,76.38
2022-12-18T14:00:21.096Z,76.68
2022-12-18T14:03:29.952Z,76.51
2022-12-18T14:06:32.496Z,75.94
2022-12-18T14:09:36.982Z,75.92
2022-12-18T14:13:01.097Z,75.86
2022-12-18T14:16:07.083Z,76.34
2022-12-18T14:19:15.092Z,76.00
2022-12-18T14:22:21.849Z,75.49
2022-12-18T14:25:24.697Z,75.95
2022-12-18T14:28:27.283Z,75.32
2022-12-18T14:31:30.767Z,74.97
2022-12-18T14:34:33.771Z,75.22
2022-12-18T14:37:35.454Z,75.60
2022-12-18T14:40:37.523Z,75.26
2022-12-18T14:43:40.563Z,75.35
2022-12-18T14:46:44.517Z,75.74
2022-12-18T14:49:48.555Z,75.07
2022-12-18T14:52:50.549Z,75.09
2022-12-18T14:55:52.538Z,75.01
2022-12-18T14:58:58.661Z,75.06
2022-12-18T15:02:04.029Z,74.94
2022-12-18T15:05:19.854Z,74.97
2022-12-18T15:08:32.109Z,75.32
2022-12-18T15:11:37.338Z,74.95
2022-12-18T15:14:40.726Z,75.19
2022-12-18T15:17:42.409Z,75.27
2022-12-18T15:20:46.472Z,75.02
2022-12-18T15:23:49.555Z,75.39
2022-12-18T15:26:51.531Z,75.49
2022-12-18T15:30:04.732Z,75.55
2022-12-18T15:33:23.829Z,75.42
2022-12-18T15:36:27.147Z,75.49
2022-12-18T15:39:28.953Z,75.60
2022-12-18T15:42:49.153Z,75.47
2022-12-18T15:45:51.858Z,75.87
2022-12-18T15:48:58.121Z,75.82
2022-12-18T15:52:04.851Z,75.65
2022-12-18T15:55:25.678Z,75.82
2022-12-18T15:58:27.521Z,76.10
2022-12-18T16:01:30.980Z,76.05
2022-12-18T16:04:32.700Z,76.24
2022-12-18T16:07:36.399Z,76.14
2022-12-18T16:10:38.102Z,76.28
2022-12-18T16:13:40.243Z,76.03
2022-12-18T16:16:42.814Z,76.23
2022-12-18T16:19:44.556Z,75.85
2022-12-18T16:22:47.998Z,76.07
2022-12-18T16:25:49.613Z,75.96
2022-12-18T16:28:51.167Z,75.97
2022-12-18T16:31:53.755Z,76.23
2022-12-18T16:35:00.369Z,76.20
2022-12-18T16:38:06.622Z,76.76
2022-12-18T16:41:33.544Z,76.38
2022-12-18T16:44:35.368Z,76.30
2022-12-18T16:47:38.110Z,76.24
2022-12-18T16:50:40.359Z,76.50
2022-12-18T16:53:43.896Z,76.61
2022-12-18T16:56:46.864Z,76.42
2022-12-18T16:59:48.827Z,76.70
2022-12-18T17:02:50.894Z,76.74
2022-12-18T17:05:53.293Z,76.87
2022-12-18T17:08:58.022Z,76.61
2022-12-18T17:12:04.177Z,76.59
2022-12-18T17:15:06.920Z,76.32
2022-12-18T17:18:08.839Z,76.51
2022-12-18T17:21:11.237Z,76.74
2022-12-18T17:24:14.251Z,76.68
2022-12-18T17:27:16.373Z,76.50
2022-12-18T17:30:18.151Z,76.58
2022-12-18T17:33:20.073Z,76.78
2022-12-18T17:36:21.948Z,77.13
2022-12-18T17:39:25.134Z,76.76
2022-12-18T17:42:26.779Z,76.82
2022-12-18T17:45:28.444Z,77.06
2022-12-18T17:48:29.960Z,76.68
2022-12-18T17:51:31.637Z,76.73
2022-12-18T17:54:35.532Z,76.82
2022-12-18T17:57:37.208Z,76.65
2022-12-18T18:00:40.536Z,76.38
2022-12-18T18:03:42.787Z,76.28
2022-12-18T18:06:44.997Z,76.25
2022-12-18T18:09:48.528Z,76.20
2022-12-18T18:13:08.726Z,76.43
2022-12-18T18:16:10.887Z,76.68
2022-12-18T18:19:13.511Z,76.07
2022-12-18T18:22:15.234Z,76.20
2022-12-18T18:25:18.381Z,76.27
2022-12-18T18:28:20.620Z,76.47
2022-12-18T18:31:22.395Z,77.08
2022-12-18T18:34:25.458Z,77.01
2022-12-18T18:37:27.250Z,77.16
2022-12-18T18:40:30.202Z,76.96
2022-12-18T18:43:32.099Z,77.00
2022-12-18T18:46:33.854Z,76.79
2022-12-18T18:49:35.399Z,77.17
2022-12-18T18:52:36.938Z,77.22
2022-12-18T18:55:42.307Z,77.67
2022-12-18T18:58:44.480Z,77.69
2022-12-18T19:01:46.414Z,77.69
2022-12-18T19:04:48.152Z,77.51
2022-12-18T19:07:49.796Z,77.47
2022-12-18T19:10:57.664Z,77.54
2022-12-18T19:14:00.272Z,77.53
2022-12-18T19:17:01.882Z,77.59
2022-12-18T19:20:04.135Z,77.70
2022-12-18T19:23:05.910Z,77.42
2022-12-18T19:26:27.987Z,77.94
2022-12-18T19:29:30.291Z,78.00
2022-12-18T19:32:32.130Z,77.74
2022-12-18T19:35:34.095Z,77.88
2022-12-18T19:38:35.919Z,78.12
2022-12-18T19:41:39.383Z,77.95
2022-12-18T19:44:41.472Z,77.76
2022-12-18T19:47:43.068Z,77.95
2022-12-18T19:50:44.670Z,78.07
2022-12-18T19:53:46.723Z,77.90
2022-12-18T19:56:50.070Z,78.06
2022-12-18T19:59:51.618Z,77.48
2022-12-18T20:02:58.229Z,77.85
2022-12-18T20:06:11.079Z,77.63
2022-12-18T20:09:12.632Z,77.74
2022-12-18T20:12:15.756Z,77.96
2022-12-18T20:15:17.394Z,78.09
2022-12-18T20:18:18.981Z,78.17
2022-12-18T20:21:20.858Z,78.64
2022-12-18T20:24:22.526Z,78.69
2022-12-18T20:27:25.538Z,78.76
2022-12-18T20:30:27.365Z,79.48
2022-12-18T20:33:29.514Z,80.06
2022-12-18T20:36:31.753Z,79.86
2022-12-18T20:39:35.885Z,80.05
2022-12-18T20:42:39.262Z,80.26
2022-12-18T20:45:42.193Z,80.31
2022-12-18T20:48:45.537Z,80.43
2022-12-18T20:51:49.632Z,80.64
2022-12-18T20:54:51.395Z,80.80
2022-12-18T20:57:54.615Z,80.88
2022-12-18T21:01:02.314Z,80.99
2022-12-18T21:04:04.312Z,81.35
2022-12-18T21:07:05.869Z,81.36
2022-12-18T21:10:07.916Z,81.35
2022-12-18T21:13:11.046Z,81.72
2022-12-18T21:16:13.153Z,81.55
2022-12-18T21:19:16.127Z,82.23
2022-12-18T21:22:17.840Z,82.21
2022-12-18T21:25:19.784Z,82.73
2022-12-18T21:28:23.096Z,82.78
2022-12-18T21:31:27.061Z,82.93
2022-12-18T21:34:29.778Z,82.88
2022-12-18T21:37:31.405Z,83.09
2022-12-18T21:40:33.153Z,83.53
2022-12-18T21:43:55.595Z,83.36
2022-12-18T21:47:10.812Z,83.57
2022-12-18T21:50:15.637Z,84.22
2022-12-18T21:53:17.213Z,84.03
2022-12-18T21:56:19.567Z,84.09
2022-12-18T21:59:23.690Z,84.29
2022-12-18T22:02:26.742Z,84.21
2022-12-18T22:05:28.717Z,84.47
2022-12-18T22:08:30.350Z,84.70
2022-12-18T22:11:32.276Z,84.68
2022-12-18T22:14:36.042Z,84.85
2022-12-18T22:17:37.820Z,84.69
2022-12-18T22:20:39.917Z,84.75
2022-12-18T22:23:41.881Z,85.21
2022-12-18T22:26:44.092Z,85.16
2022-12-18T22:30:19.707Z,85.42
2022-12-18T22:33:21.370Z,85.45
2022-12-18T22:36:23.039Z,85.30
2022-12-18T22:39:25.961Z,85.93
2022-12-18T22:42:31.339Z,85.91
2022-12-18T22:45:38.027Z,86.13
2022-12-18T22:48:43.040Z,85.87
2022-12-18T22:51:44.869Z,86.05
2022-12-18T22:54:49.413Z,86.61
2022-12-18T22:57:52.593Z,86.56
2022-12-18T23:00:55.672Z,86.21
2022-12-18T23:03:58.090Z,86.17
2022-12-18T23:06:59.765Z,85.86
2022-12-18T23:10:01.496Z,86.12
2022-12-18T23:13:03.212Z,86.22
2022-12-18T23:16:07.875Z,86.16
2022-12-18T23:19:09.751Z,86.19
2022-12-18T23:22:11.956Z,86.41
2022-12-18T23:25:13.930Z,85.78
2022-12-18T23:28:15.653Z,87.11
2022-12-18T23:31:19.738Z,87.06
2022-12-18T23:34:21.361Z,87.50
2022-12-18T23:37:49.871Z,87.47
2022-12-18T23:40:44.989Z,89.06
2022-12-18T23:43:49.380Z,89.22
2022-12-18T23:46:52.757Z,89.52
2022-12-18T23:49:54.867Z,89.89
2022-12-18T23:52:56.602Z,88.96
2022-12-18T23:56:03.183Z,89.08
2022-12-18T23:59:05.755Z,90.13
